sensor_id;sensor_type;location;lat;lon;timestamp;pressure;altitude;pressure_sealevel;temperature;humidity
10127;BME280;13080;42.608;23.362;2023-09-08T00:02:19;155362.81;;;16.81;85.76
10127;BME280;13080;42.608;23.362;2023-09-08T00:04:45;155349.72;;;16.76;85.54
10127;BME280;13080;42.608;23.362;2023-09-08T00:07:12;155341.91;;;16.73;84.64
10127;BME280;13080;42.608;23.362;2023-09-08T00:09:39;155335.41;;;16.71;83.04
10127;BME280;13080;42.608;23.362;2023-09-08T00:12:07;155345.84;;;16.75;82.94
10127;BME280;13080;42.608;23.362;2023-09-08T00:14:34;155336.69;;;16.71;82.15
10127;BME280;13080;42.608;23.362;2023-09-08T00:17:01;155323.66;;;16.66;81.63
10127;BME280;13080;42.608;23.362;2023-09-08T00:19:28;155321.03;;;16.65;81.37
10127;BME280;13080;42.608;23.362;2023-09-08T00:21:54;155306.72;;;16.59;82.16
10127;BME280;13080;42.608;23.362;2023-09-08T00:24:21;155305.38;;;16.59;82.30
10127;BME280;13080;42.608;23.362;2023-09-08T00:26:48;155297.56;;;16.56;81.09
10127;BME280;13080;42.608;23.362;2023-09-08T00:29:16;155302.78;;;16.58;81.06
10127;BME280;13080;42.608;23.362;2023-09-08T00:31:43;155297.56;;;16.56;81.12
10127;BME280;13080;42.608;23.362;2023-09-08T00:34:09;155288.41;;;16.52;80.68
10127;BME280;13080;42.608;23.362;2023-09-08T00:36:36;155285.81;;;16.51;81.34
10127;BME280;13080;42.608;23.362;2023-09-08T00:39:03;155274.09;;;16.47;79.51
10127;BME280;13080;42.608;23.362;2023-09-08T00:41:30;155270.16;;;16.45;79.59
10127;BME280;13080;42.608;23.362;2023-09-08T00:43:57;155266.28;;;16.44;79.04
10127;BME280;13080;42.608;23.362;2023-09-08T00:46:25;155279.31;;;16.49;78.34
10127;BME280;13080;42.608;23.362;2023-09-08T00:48:53;155279.31;;;16.49;77.38
10127;BME280;13080;42.608;23.362;2023-09-08T00:51:20;155271.44;;;16.46;77.65
10127;BME280;13080;42.608;23.362;2023-09-08T00:53:47;155274.09;;;16.47;77.58
10127;BME280;13080;42.608;23.362;2023-09-08T00:56:15;155270.16;;;16.45;78.15
10127;BME280;13080;42.608;23.362;2023-09-08T00:58:41;155274.09;;;16.47;77.89
10127;BME280;13080;42.608;23.362;2023-09-08T01:01:08;155268.88;;;16.45;77.77
10127;BME280;13080;42.608;23.362;2023-09-08T01:03:36;155291.03;;;16.53;77.38
10127;BME280;13080;42.608;23.362;2023-09-08T01:06:03;155287.13;;;16.52;77.01
10127;BME280;13080;42.608;23.362;2023-09-08T01:08:31;155293.63;;;16.54;77.05
10127;BME280;13080;42.608;23.362;2023-09-08T01:10:58;155284.53;;;16.51;77.35
10127;BME280;13080;42.608;23.362;2023-09-08T01:13:25;155281.88;;;16.50;77.38
10127;BME280;13080;42.608;23.362;2023-09-08T01:15:52;155291.03;;;16.53;77.77
10127;BME280;13080;42.608;23.362;2023-09-08T01:18:18;155297.56;;;16.56;77.60
10127;BME280;13080;42.608;23.362;2023-09-08T01:24:03;155302.78;;;16.58;77.70
10127;BME280;13080;42.608;23.362;2023-09-08T01:26:41;155288.41;;;16.52;78.40
10127;BME280;13080;42.608;23.362;2023-09-08T01:29:09;155287.13;;;16.52;78.73
10127;BME280;13080;42.608;23.362;2023-09-08T01:31:37;155291.03;;;16.53;78.61
10127;BME280;13080;42.608;23.362;2023-09-08T01:34:05;155296.25;;;16.55;79.12
10127;BME280;13080;42.608;23.362;2023-09-08T01:36:32;155280.59;;;16.49;80.70
10127;BME280;13080;42.608;23.362;2023-09-08T01:38:59;155279.31;;;16.49;79.85
10127;BME280;13080;42.608;23.362;2023-09-08T01:41:26;155270.16;;;16.45;80.29
10127;BME280;13080;42.608;23.362;2023-09-08T01:43:54;155263.63;;;16.42;80.66
10127;BME280;13080;42.608;23.362;2023-09-08T01:46:21;155261.06;;;16.41;81.67
10127;BME280;13080;42.608;23.362;2023-09-08T01:48:48;155238.88;;;16.33;81.83
10127;BME280;13080;42.608;23.362;2023-09-08T01:51:14;155236.25;;;16.32;81.97
10127;BME280;13080;42.608;23.362;2023-09-08T01:53:41;155223.22;;;16.27;82.86
10127;BME280;13080;42.608;23.362;2023-09-08T01:56:08;155218.00;;;16.25;83.69
10127;BME280;13080;42.608;23.362;2023-09-08T01:58:35;155207.56;;;16.20;83.07
10127;BME280;13080;42.608;23.362;2023-09-08T02:01:03;155216.69;;;16.24;82.89
10127;BME280;13080;42.608;23.362;2023-09-08T02:03:31;155228.44;;;16.29;82.96
10127;BME280;13080;42.608;23.362;2023-09-08T02:05:58;155234.94;;;16.31;83.84
10127;BME280;13080;42.608;23.362;2023-09-08T02:08:24;155234.94;;;16.31;82.39
10127;BME280;13080;42.608;23.362;2023-09-08T02:10:51;155224.50;;;16.27;82.90
10127;BME280;13080;42.608;23.362;2023-09-08T02:13:18;155221.91;;;16.26;82.33
10127;BME280;13080;42.608;23.362;2023-09-08T02:15:45;155211.47;;;16.22;83.16
10127;BME280;13080;42.608;23.362;2023-09-08T02:18:14;155198.44;;;16.17;84.00
10127;BME280;13080;42.608;23.362;2023-09-08T02:20:40;155202.31;;;16.18;84.08
10127;BME280;13080;42.608;23.362;2023-09-08T02:23:07;155186.72;;;16.12;84.64
10127;BME280;13080;42.608;23.362;2023-09-08T02:25:34;155160.63;;;16.02;85.34
10127;BME280;13080;42.608;23.362;2023-09-08T02:28:01;155154.09;;;15.99;85.41
10127;BME280;13080;42.608;23.362;2023-09-08T02:30:27;155150.19;;;15.98;85.67
10127;BME280;13080;42.608;23.362;2023-09-08T02:32:54;155155.41;;;16.00;85.49
10127;BME280;13080;42.608;23.362;2023-09-08T02:35:23;155163.25;;;16.03;85.17
10127;BME280;13080;42.608;23.362;2023-09-08T02:37:50;155182.78;;;16.11;85.01
10127;BME280;13080;42.608;23.362;2023-09-08T02:40:17;155188.00;;;16.13;84.91
10127;BME280;13080;42.608;23.362;2023-09-08T02:42:44;155202.31;;;16.18;84.63
10127;BME280;13080;42.608;23.362;2023-09-08T02:45:11;155197.09;;;16.16;84.29
10127;BME280;13080;42.608;23.362;2023-09-08T02:47:38;155197.09;;;16.16;84.12
10127;BME280;13080;42.608;23.362;2023-09-08T02:50:05;155190.59;;;16.14;84.31
10127;BME280;13080;42.608;23.362;2023-09-08T02:52:34;155188.00;;;16.13;84.80
10127;BME280;13080;42.608;23.362;2023-09-08T02:55:00;155175.00;;;16.08;85.64
10127;BME280;13080;42.608;23.362;2023-09-08T02:57:27;155163.25;;;16.03;86.02
10127;BME280;13080;42.608;23.362;2023-09-08T02:59:54;155161.91;;;16.03;86.11
10127;BME280;13080;42.608;23.362;2023-09-08T03:02:22;155154.09;;;15.99;87.46
10127;BME280;13080;42.608;23.362;2023-09-08T03:04:48;155096.75;;;15.77;88.55
10127;BME280;13080;42.608;23.362;2023-09-08T03:07:15;155049.78;;;15.58;89.85
10127;BME280;13080;42.608;23.362;2023-09-08T03:09:43;154996.31;;;15.37;91.12
10127;BME280;13080;42.608;23.362;2023-09-08T03:12:10;154957.19;;;15.22;92.37
10127;BME280;13080;42.608;23.362;2023-09-08T03:14:36;154923.31;;;15.09;93.65
10127;BME280;13080;42.608;23.362;2023-09-08T03:17:03;154896.00;;;14.98;94.68
10127;BME280;13080;42.608;23.362;2023-09-08T03:19:30;154867.31;;;14.87;95.42
10127;BME280;13080;42.608;23.362;2023-09-08T03:21:57;154843.88;;;14.78;95.74
10127;BME280;13080;42.608;23.362;2023-09-08T03:24:24;154828.22;;;14.71;96.58
10127;BME280;13080;42.608;23.362;2023-09-08T03:26:52;154815.22;;;14.66;96.04
10127;BME280;13080;42.608;23.362;2023-09-08T03:29:18;154804.78;;;14.62;96.54
10127;BME280;13080;42.608;23.362;2023-09-08T03:31:45;154800.88;;;14.61;96.88
10127;BME280;13080;42.608;23.362;2023-09-08T03:34:12;154783.88;;;14.54;97.28
10127;BME280;13080;42.608;23.362;2023-09-08T03:36:39;154765.66;;;14.47;97.35
10127;BME280;13080;42.608;23.362;2023-09-08T03:39:06;154764.38;;;14.46;98.05
10127;BME280;13080;42.608;23.362;2023-09-08T03:41:34;154765.66;;;14.47;98.21
10127;BME280;13080;42.608;23.362;2023-09-08T03:44:03;154764.38;;;14.46;99.31
10127;BME280;13080;42.608;23.362;2023-09-08T03:46:30;154753.94;;;14.42;100.00
10127;BME280;13080;42.608;23.362;2023-09-08T03:48:56;154752.66;;;14.42;100.00
10127;BME280;13080;42.608;23.362;2023-09-08T03:51:26;154740.88;;;14.37;100.00
10127;BME280;13080;42.608;23.362;2023-09-08T03:53:53;154731.78;;;14.33;100.00
10127;BME280;13080;42.608;23.362;2023-09-08T03:56:20;154735.72;;;14.35;100.00
10127;BME280;13080;42.608;23.362;2023-09-08T03:58:47;154731.78;;;14.33;100.00
10127;BME280;13080;42.608;23.362;2023-09-08T04:01:16;154726.56;;;14.31;100.00
10127;BME280;13080;42.608;23.362;2023-09-08T04:03:42;154730.50;;;14.33;100.00
10127;BME280;13080;42.608;23.362;2023-09-08T04:06:10;154730.50;;;14.33;100.00
10127;BME280;13080;42.608;23.362;2023-09-08T04:08:36;154727.88;;;14.32;100.00
10127;BME280;13080;42.608;23.362;2023-09-08T04:11:03;154727.88;;;14.32;100.00
10127;BME280;13080;42.608;23.362;2023-09-08T04:13:30;154724.00;;;14.30;100.00
10127;BME280;13080;42.608;23.362;2023-09-08T04:15:57;154722.66;;;14.30;100.00
10127;BME280;13080;42.608;23.362;2023-09-08T04:18:25;154718.78;;;14.28;100.00
10127;BME280;13080;42.608;23.362;2023-09-08T04:20:52;154718.78;;;14.28;100.00
10127;BME280;13080;42.608;23.362;2023-09-08T04:23:19;154714.84;;;14.27;100.00
10127;BME280;13080;42.608;23.362;2023-09-08T04:25:46;154714.84;;;14.27;100.00
10127;BME280;13080;42.608;23.362;2023-09-08T04:28:12;154733.09;;;14.34;100.00
10127;BME280;13080;42.608;23.362;2023-09-08T04:30:39;154744.81;;;14.39;100.00
10127;BME280;13080;42.608;23.362;2023-09-08T04:33:06;154742.22;;;14.38;100.00
10127;BME280;13080;42.608;23.362;2023-09-08T04:35:34;154746.09;;;14.39;100.00
10127;BME280;13080;42.608;23.362;2023-09-08T04:38:01;154756.53;;;14.43;100.00
10127;BME280;13080;42.608;23.362;2023-09-08T04:40:28;154803.44;;;14.62;98.93
10127;BME280;13080;42.608;23.362;2023-09-08T04:42:55;154832.09;;;14.73;97.77
10127;BME280;13080;42.608;23.362;2023-09-08T04:45:22;154851.69;;;14.81;97.44
10127;BME280;13080;42.608;23.362;2023-09-08T04:47:49;154876.41;;;14.90;96.57
10127;BME280;13080;42.608;23.362;2023-09-08T04:50:16;154893.34;;;14.97;95.99
10127;BME280;13080;42.608;23.362;2023-09-08T04:52:44;154915.50;;;15.06;95.62
10127;BME280;13080;42.608;23.362;2023-09-08T04:55:10;154931.16;;;15.12;95.39
10127;BME280;13080;42.608;23.362;2023-09-08T04:57:37;154950.69;;;15.20;95.26
10127;BME280;13080;42.608;23.362;2023-09-08T05:00:05;154974.13;;;15.29;94.81
10127;BME280;13080;42.608;23.362;2023-09-08T05:02:33;154996.31;;;15.37;94.41
10127;BME280;13080;42.608;23.362;2023-09-08T05:04:59;155013.25;;;15.44;94.08
10127;BME280;13080;42.608;23.362;2023-09-08T05:07:26;155026.31;;;15.49;93.70
10127;BME280;13080;42.608;23.362;2023-09-08T05:09:54;155048.44;;;15.58;93.14
10127;BME280;13080;42.608;23.362;2023-09-08T05:12:21;155103.25;;;15.79;91.46
10127;BME280;13080;42.608;23.362;2023-09-08T05:14:48;155122.78;;;15.87;90.51
10127;BME280;13080;42.608;23.362;2023-09-08T05:17:14;155134.53;;;15.92;90.22
10127;BME280;13080;42.608;23.362;2023-09-08T05:19:41;155154.09;;;15.99;90.81
10127;BME280;13080;42.608;23.362;2023-09-08T05:22:08;155168.41;;;16.05;90.38
10127;BME280;13080;42.608;23.362;2023-09-08T05:24:35;155182.78;;;16.11;89.30
10127;BME280;13080;42.608;23.362;2023-09-08T05:27:03;155203.69;;;16.19;88.39
10127;BME280;13080;42.608;23.362;2023-09-08T05:29:30;155224.50;;;16.27;86.60
10127;BME280;13080;42.608;23.362;2023-09-08T05:31:57;155237.59;;;16.32;86.10
10127;BME280;13080;42.608;23.362;2023-09-08T05:34:24;155249.31;;;16.37;83.87
10127;BME280;13080;42.608;23.362;2023-09-08T05:36:50;155278.00;;;16.48;83.15
10127;BME280;13080;42.608;23.362;2023-09-08T05:39:18;155288.41;;;16.52;82.51
10127;BME280;13080;42.608;23.362;2023-09-08T05:41:45;155324.97;;;16.67;78.77
10127;BME280;13080;42.608;23.362;2023-09-08T05:44:13;155331.47;;;16.69;79.11
10127;BME280;13080;42.608;23.362;2023-09-08T05:46:39;155356.25;;;16.79;80.06
10127;BME280;13080;42.608;23.362;2023-09-08T05:49:06;155392.84;;;16.93;76.74
10127;BME280;13080;42.608;23.362;2023-09-08T05:51:33;155383.69;;;16.90;75.72
10127;BME280;13080;42.608;23.362;2023-09-08T05:54:00;155382.41;;;16.89;78.81
10127;BME280;13080;42.608;23.362;2023-09-08T05:56:29;155401.97;;;16.97;76.39
10127;BME280;13080;42.608;23.362;2023-09-08T05:58:57;155435.88;;;17.10;75.87
10127;BME280;13080;42.608;23.362;2023-09-08T06:01:25;155452.84;;;17.17;75.96
10127;BME280;13080;42.608;23.362;2023-09-08T06:03:52;155460.72;;;17.20;75.30
10127;BME280;13080;42.608;23.362;2023-09-08T06:06:20;155486.78;;;17.30;74.31
10127;BME280;13080;42.608;23.362;2023-09-08T06:08:46;155514.22;;;17.41;73.19
10127;BME280;13080;42.608;23.362;2023-09-08T06:11:13;155541.63;;;17.52;71.92
10127;BME280;13080;42.608;23.362;2023-09-08T06:13:40;155571.63;;;17.63;71.13
10127;BME280;13080;42.608;23.362;2023-09-08T06:16:07;155572.94;;;17.64;72.62
10127;BME280;13080;42.608;23.362;2023-09-08T06:18:36;155609.50;;;17.78;70.71
10127;BME280;13080;42.608;23.362;2023-09-08T06:21:05;155605.56;;;17.77;72.32
10127;BME280;13080;42.608;23.362;2023-09-08T06:23:32;155642.16;;;17.91;70.22
10127;BME280;13080;42.608;23.362;2023-09-08T06:25:59;155648.75;;;17.94;70.41
10127;BME280;13080;42.608;23.362;2023-09-08T06:28:26;155676.13;;;18.04;69.52
10127;BME280;13080;42.608;23.362;2023-09-08T06:30:53;155693.09;;;18.11;69.33
10127;BME280;13080;42.608;23.362;2023-09-08T06:33:20;155723.16;;;18.23;68.88
10127;BME280;13080;42.608;23.362;2023-09-08T06:35:49;155746.66;;;18.32;69.35
10127;BME280;13080;42.608;23.362;2023-09-08T06:38:15;155764.94;;;18.39;66.49
10127;BME280;13080;42.608;23.362;2023-09-08T06:40:42;155785.84;;;18.47;66.79
10127;BME280;13080;42.608;23.362;2023-09-08T06:43:09;155791.03;;;18.49;67.54
10127;BME280;13080;42.608;23.362;2023-09-08T06:45:37;155819.75;;;18.61;67.68
10127;BME280;13080;42.608;23.362;2023-09-08T06:48:05;155845.91;;;18.71;67.74
10127;BME280;13080;42.608;23.362;2023-09-08T06:50:31;155879.94;;;18.84;66.67
10127;BME280;13080;42.608;23.362;2023-09-08T06:53:00;155908.69;;;18.96;66.18
10127;BME280;13080;42.608;23.362;2023-09-08T06:55:27;155929.59;;;19.04;65.54
10127;BME280;13080;42.608;23.362;2023-09-08T06:57:53;155955.69;;;19.14;65.11
10127;BME280;13080;42.608;23.362;2023-09-08T07:00:20;155990.97;;;19.28;64.50
10127;BME280;13080;42.608;23.362;2023-09-08T07:02:47;156018.44;;;19.39;65.02
10127;BME280;13080;42.608;23.362;2023-09-08T07:05:15;156062.88;;;19.56;65.01
10127;BME280;13080;42.608;23.362;2023-09-08T07:07:42;156091.63;;;19.67;63.19
10127;BME280;13080;42.608;23.362;2023-09-08T07:10:11;156106.09;;;19.73;63.75
10127;BME280;13080;42.608;23.362;2023-09-08T07:12:38;156138.72;;;19.86;62.90
10127;BME280;13080;42.608;23.362;2023-09-08T07:15:05;156175.38;;;20.00;62.92
10127;BME280;13080;42.608;23.362;2023-09-08T07:17:33;156193.66;;;20.07;61.94
10127;BME280;13080;42.608;23.362;2023-09-08T07:20:00;156194.97;;;20.08;61.30
10127;BME280;13080;42.608;23.362;2023-09-08T07:22:28;156184.50;;;20.04;62.58
10127;BME280;13080;42.608;23.362;2023-09-08T07:24:54;156188.44;;;20.05;62.84
10127;BME280;13080;42.608;23.362;2023-09-08T07:27:22;156157.03;;;19.93;61.61
10127;BME280;13080;42.608;23.362;2023-09-08T07:29:49;156119.16;;;19.78;64.52
10127;BME280;13080;42.608;23.362;2023-09-08T07:32:16;156153.13;;;19.91;64.37
10127;BME280;13080;42.608;23.362;2023-09-08T07:34:43;156167.50;;;19.97;64.33
10127;BME280;13080;42.608;23.362;2023-09-08T07:37:10;156149.19;;;19.90;62.66
10127;BME280;13080;42.608;23.362;2023-09-08T07:39:37;156177.97;;;20.01;62.98
10127;BME280;13080;42.608;23.362;2023-09-08T07:42:04;156159.66;;;19.94;64.17
10127;BME280;13080;42.608;23.362;2023-09-08T07:44:32;156187.13;;;20.05;63.14
10127;BME280;13080;42.608;23.362;2023-09-08T07:46:59;156228.97;;;20.21;62.30
10127;BME280;13080;42.608;23.362;2023-09-08T07:49:25;156253.78;;;20.31;64.61
10127;BME280;13080;42.608;23.362;2023-09-08T07:51:52;156285.19;;;20.43;61.34
10127;BME280;13080;42.608;23.362;2023-09-08T07:54:19;156338.84;;;20.64;60.24
10127;BME280;13080;42.608;23.362;2023-09-08T07:56:46;156405.59;;;20.90;59.92
10127;BME280;13080;42.608;23.362;2023-09-08T07:59:12;156474.91;;;21.17;59.10
10127;BME280;13080;42.608;23.362;2023-09-08T08:01:41;156560.03;;;21.51;58.80
10127;BME280;13080;42.608;23.362;2023-09-08T08:04:07;156608.44;;;21.70;58.40
10127;BME280;13080;42.608;23.362;2023-09-08T08:06:34;156634.66;;;21.80;58.25
10127;BME280;13080;42.608;23.362;2023-09-08T08:09:01;156649.00;;;21.86;57.08
10127;BME280;13080;42.608;23.362;2023-09-08T08:11:28;156655.56;;;21.88;55.92
10127;BME280;13080;42.608;23.362;2023-09-08T08:14:12;156626.75;;;21.77;55.88
10127;BME280;13080;42.608;23.362;2023-09-08T08:16:40;156635.94;;;21.80;54.64
10127;BME280;13080;42.608;23.362;2023-09-08T08:19:07;156612.38;;;21.71;55.83
10127;BME280;13080;42.608;23.362;2023-09-08T08:21:34;156628.09;;;21.77;56.19
10127;BME280;13080;42.608;23.362;2023-09-08T08:24:01;156594.06;;;21.64;55.83
10127;BME280;13080;42.608;23.362;2023-09-08T08:26:27;156624.16;;;21.76;55.92
10127;BME280;13080;42.608;23.362;2023-09-08T08:28:58;156614.97;;;21.72;55.13
10127;BME280;13080;42.608;23.362;2023-09-08T08:31:24;156561.34;;;21.51;55.55
10127;BME280;13080;42.608;23.362;2023-09-08T08:33:53;156528.56;;;21.38;55.27
10127;BME280;13080;42.608;23.362;2023-09-08T08:36:19;156497.19;;;21.26;56.55
10127;BME280;13080;42.608;23.362;2023-09-08T08:38:46;156512.88;;;21.32;55.23
10127;BME280;13080;42.608;23.362;2023-09-08T08:41:13;156536.50;;;21.42;56.53
10127;BME280;13080;42.608;23.362;2023-09-08T08:43:40;156543.03;;;21.44;56.08
10127;BME280;13080;42.608;23.362;2023-09-08T08:46:08;156537.78;;;21.42;55.71
10127;BME280;13080;42.608;23.362;2023-09-08T08:48:35;156532.50;;;21.40;55.58
10127;BME280;13080;42.608;23.362;2023-09-08T08:51:05;156536.50;;;21.42;56.09
10127;BME280;13080;42.608;23.362;2023-09-08T08:53:32;156548.25;;;21.46;55.49
10127;BME280;13080;42.608;23.362;2023-09-08T08:56:00;156560.03;;;21.51;54.88
10127;BME280;13080;42.608;23.362;2023-09-08T08:58:28;156596.66;;;21.65;53.14
10127;BME280;13080;42.608;23.362;2023-09-08T09:00:55;156626.75;;;21.77;54.00
10127;BME280;13080;42.608;23.362;2023-09-08T09:03:26;156669.97;;;21.94;53.88
10127;BME280;13080;42.608;23.362;2023-09-08T09:05:53;156671.28;;;21.94;52.16
10127;BME280;13080;42.608;23.362;2023-09-08T09:08:22;156685.69;;;22.00;51.38
10127;BME280;13080;42.608;23.362;2023-09-08T09:10:50;156738.06;;;22.20;52.94
10127;BME280;13080;42.608;23.362;2023-09-08T09:13:17;156747.25;;;22.24;53.16
10127;BME280;13080;42.608;23.362;2023-09-08T09:15:44;156755.13;;;22.27;50.74
10127;BME280;13080;42.608;23.362;2023-09-08T09:18:12;156744.66;;;22.23;51.53
10127;BME280;13080;42.608;23.362;2023-09-08T09:20:38;156781.28;;;22.37;52.62
10127;BME280;13080;42.608;23.362;2023-09-08T09:23:06;156835.00;;;22.58;52.38
10127;BME280;13080;42.608;23.362;2023-09-08T09:25:35;156875.63;;;22.74;53.30
10127;BME280;13080;42.608;23.362;2023-09-08T09:28:03;156888.69;;;22.79;49.67
10127;BME280;13080;42.608;23.362;2023-09-08T09:30:46;156934.53;;;22.97;51.00
10127;BME280;13080;42.608;23.362;2023-09-08T09:33:14;156918.81;;;22.91;50.06
10127;BME280;13080;42.608;23.362;2023-09-08T09:35:42;156945.09;;;23.01;49.38
10127;BME280;13080;42.608;23.362;2023-09-08T09:38:09;156929.28;;;22.95;51.72
10127;BME280;13080;42.608;23.362;2023-09-08T09:40:38;156962.09;;;23.08;50.65
10127;BME280;13080;42.608;23.362;2023-09-08T09:43:05;157018.47;;;23.30;50.83
10127;BME280;13080;42.608;23.362;2023-09-08T09:45:33;157000.13;;;23.23;48.84
10127;BME280;13080;42.608;23.362;2023-09-08T09:48:00;157005.38;;;23.25;49.21
10127;BME280;13080;42.608;23.362;2023-09-08T09:50:29;156951.63;;;23.04;50.10
10127;BME280;13080;42.608;23.362;2023-09-08T09:52:57;156949.03;;;23.03;50.78
10127;BME280;13080;42.608;23.362;2023-09-08T09:55:26;156966.06;;;23.10;50.37
10127;BME280;13080;42.608;23.362;2023-09-08T09:57:57;157034.19;;;23.36;49.38
10127;BME280;13080;42.608;23.362;2023-09-08T10:00:26;157060.38;;;23.47;50.13
10127;BME280;13080;42.608;23.362;2023-09-08T10:02:54;157085.25;;;23.56;50.55
10127;BME280;13080;42.608;23.362;2023-09-08T10:05:22;157065.63;;;23.49;47.45
10127;BME280;13080;42.608;23.362;2023-09-08T10:07:50;157057.78;;;23.45;48.74
10127;BME280;13080;42.608;23.362;2023-09-08T10:10:17;157051.22;;;23.43;49.67
10127;BME280;13080;42.608;23.362;2023-09-08T10:12:45;157045.97;;;23.41;47.39
10127;BME280;13080;42.608;23.362;2023-09-08T10:15:19;157066.91;;;23.49;50.65
10127;BME280;13080;42.608;23.362;2023-09-08T10:17:52;157064.31;;;23.48;47.37
10127;BME280;13080;42.608;23.362;2023-09-08T10:20:22;157049.88;;;23.42;48.39
10127;BME280;13080;42.608;23.362;2023-09-08T10:22:53;157052.53;;;23.43;48.68
10127;BME280;13080;42.608;23.362;2023-09-08T10:25:24;157023.69;;;23.32;46.91
10127;BME280;13080;42.608;23.362;2023-09-08T10:27:51;157006.66;;;23.26;48.11
10127;BME280;13080;42.608;23.362;2023-09-08T10:30:21;156977.84;;;23.14;49.36
10127;BME280;13080;42.608;23.362;2023-09-08T10:32:49;157001.41;;;23.23;48.55
10127;BME280;13080;42.608;23.362;2023-09-08T10:35:17;156973.91;;;23.13;46.72
10127;BME280;13080;42.608;23.362;2023-09-08T10:37:44;156956.88;;;23.06;47.24
10127;BME280;13080;42.608;23.362;2023-09-08T10:40:21;156916.22;;;22.90;48.90
10127;BME280;13080;42.608;23.362;2023-09-08T10:42:49;156913.63;;;22.89;47.70
10127;BME280;13080;42.608;23.362;2023-09-08T10:45:17;156905.72;;;22.86;49.48
10127;BME280;13080;42.608;23.362;2023-09-08T10:47:56;156943.78;;;23.01;48.24
10127;BME280;13080;42.608;23.362;2023-09-08T10:50:29;156958.16;;;23.07;47.18
10127;BME280;13080;42.608;23.362;2023-09-08T10:53:12;157001.41;;;23.23;48.69
10127;BME280;13080;42.608;23.362;2023-09-08T10:55:40;157013.22;;;23.28;47.67
10127;BME280;13080;42.608;23.362;2023-09-08T10:58:10;157011.91;;;23.28;47.99
10127;BME280;13080;42.608;23.362;2023-09-08T11:00:44;157014.50;;;23.29;46.51
10127;BME280;13080;42.608;23.362;2023-09-08T11:03:12;157000.13;;;23.23;47.38
10127;BME280;13080;42.608;23.362;2023-09-08T11:05:41;157002.72;;;23.24;47.36
10127;BME280;13080;42.608;23.362;2023-09-08T11:08:09;156987.00;;;23.18;48.00
10127;BME280;13080;42.608;23.362;2023-09-08T11:10:37;156968.66;;;23.11;49.02
10127;BME280;13080;42.608;23.362;2023-09-08T11:13:06;156955.56;;;23.06;50.22
10127;BME280;13080;42.608;23.362;2023-09-08T11:15:33;156934.53;;;22.97;48.87
10127;BME280;13080;42.608;23.362;2023-09-08T11:18:05;156876.91;;;22.75;49.66
10127;BME280;13080;42.608;23.362;2023-09-08T11:20:34;156866.44;;;22.71;50.94
10127;BME280;13080;42.608;23.362;2023-09-08T11:23:01;156821.94;;;22.53;51.51
10127;BME280;13080;42.608;23.362;2023-09-08T11:25:29;156793.06;;;22.42;52.26
10127;BME280;13080;42.608;23.362;2023-09-08T11:27:57;156781.28;;;22.37;51.58
10127;BME280;13080;42.608;23.362;2023-09-08T11:30:24;156811.44;;;22.49;52.13
10127;BME280;13080;42.608;23.362;2023-09-08T11:32:51;156835.00;;;22.58;52.47
10127;BME280;13080;42.608;23.362;2023-09-08T11:35:18;156802.25;;;22.46;51.07
10127;BME280;13080;42.608;23.362;2023-09-08T11:37:47;156808.81;;;22.48;51.79
10127;BME280;13080;42.608;23.362;2023-09-08T11:40:17;156842.84;;;22.61;51.10
10127;BME280;13080;42.608;23.362;2023-09-08T11:42:45;156849.41;;;22.64;51.89
10127;BME280;13080;42.608;23.362;2023-09-08T11:45:13;156823.22;;;22.54;53.03
10127;BME280;13080;42.608;23.362;2023-09-08T11:47:41;156837.59;;;22.59;53.40
10127;BME280;13080;42.608;23.362;2023-09-08T11:50:09;156855.94;;;22.67;50.66
10127;BME280;13080;42.608;23.362;2023-09-08T11:52:41;156880.84;;;22.76;51.87
10127;BME280;13080;42.608;23.362;2023-09-08T11:55:10;156870.38;;;22.72;52.47
10127;BME280;13080;42.608;23.362;2023-09-08T11:57:37;156896.59;;;22.82;51.90
10127;BME280;13080;42.608;23.362;2023-09-08T12:00:23;156882.16;;;22.77;50.57
10127;BME280;13080;42.608;23.362;2023-09-08T12:02:51;156928.00;;;22.95;51.23
10127;BME280;13080;42.608;23.362;2023-09-08T12:05:22;156969.94;;;23.11;52.18
10127;BME280;13080;42.608;23.362;2023-09-08T12:07:50;156975.19;;;23.13;50.84
10127;BME280;13080;42.608;23.362;2023-09-08T12:10:18;156976.50;;;23.14;51.80
10127;BME280;13080;42.608;23.362;2023-09-08T12:12:46;156983.09;;;23.16;50.63
10127;BME280;13080;42.608;23.362;2023-09-08T12:15:30;157043.34;;;23.40;49.46
10127;BME280;13080;42.608;23.362;2023-09-08T12:17:59;157044.63;;;23.40;50.19
10127;BME280;13080;42.608;23.362;2023-09-08T12:20:26;157069.56;;;23.50;48.30
10127;BME280;13080;42.608;23.362;2023-09-08T12:22:53;157051.22;;;23.43;49.11
10127;BME280;13080;42.608;23.362;2023-09-08T12:25:21;157053.81;;;23.44;50.31
10127;BME280;13080;42.608;23.362;2023-09-08T12:27:50;157019.75;;;23.31;49.72
10127;BME280;13080;42.608;23.362;2023-09-08T12:30:17;156998.78;;;23.22;50.75
10127;BME280;13080;42.608;23.362;2023-09-08T12:32:46;157021.06;;;23.31;50.77
10127;BME280;13080;42.608;23.362;2023-09-08T12:35:19;157028.94;;;23.34;49.18
10127;BME280;13080;42.608;23.362;2023-09-08T12:37:49;157052.53;;;23.43;49.87
10127;BME280;13080;42.608;23.362;2023-09-08T12:40:18;157038.09;;;23.38;48.22
10127;BME280;13080;42.608;23.362;2023-09-08T12:42:46;156980.44;;;23.15;49.81
10127;BME280;13080;42.608;23.362;2023-09-08T12:45:13;156958.16;;;23.07;49.36
10127;BME280;13080;42.608;23.362;2023-09-08T12:47:40;156937.19;;;22.98;49.52